Est de la Loma, Puerto Rico
Current Conditions -  °F | °C
As of 5:53 PM on Thursday 18 Dec 2014 (Local Time) from TJNR Reporting Station
Overcast Overcast  
Wind Chill: 79°   Ceiling: 7500
Heat Index: 81°   Visibility: 10mi
Dew Point: 68°   Wind: 3mph
Humidity: 69%   Direction: 70°ENE
Pressure: 30"   Gusts: NA
Location:  18.1494°N, 65.8294°W
Report Text: TJNR 182153Z AUTO 07003KT 10SM OVC075 26/20 A3000 RMK AO2 SLP158 T02610200 $
Loading
Personal Weather Stations






























Interactive Weather Map New forecast layout! Learn more

10-Day Weather Forecast

Advertisements
Track Severe Weather on mobile